Akron Canton Regional Airport
KCAK : now visible

Airfield :











YOU CAN JOIN US ON...

 
LOGIN :

Register | Disclaimer

   EN    FR    IT 

 









Legend :    VFR   Marginal VFR   IFR   Intensive IFR   Very Intensive IFR
Visi :
Ceiling :
>= 8 km
>= 3000ft
5 to 8 km
1000 to 3000 ft
1500m to 5 km
500 to 1000 ft
800 to 1500m
200 to 500 ft
< 800m
< 200 ft
Symbols :   Thunderstorms  Fog  Heavy snow  Heavy precipitations  Wind > 20 kt






- Airport Elevation : 1228 ft
- IATA code : CAK


KCAK - Akron Canton Regional

CURRENT METAR :
  • 261151Z 17003KT 6SM BR FEW080 14/13 A3004 RMK AO2 SLP166 T01440128 10167 20133 53011

EXPIRED METARs :
  • 261051Z 17003KT 7SM CLR 14/12 A3002 RMK AO2 SLP162 T01390117
  • 260951Z 17004KT 7SM CLR 14/12 A3001 RMK AO2 SLP157 T01390117

TAF KCAK
Valid from the 26 at 12:00 until the 27 at 12:00 UTC


261120Z 2612/2712 18004KT 6SM BR FEW008
FM261300 19007KT P6SM SCT150
FM262000 20010KT P6SM SCT200
KZOB FIR / North America



MET'MAP, your aeronautical weather chart ! - Copyright ORBIFLY December 2007 - Disclaimer

ORBIFLY MET'MAP TEAM :

Programming & Development : Alexandra Zaïnal
Concept & original design : Baudouin d'Aumeries
Assistance for programming : Marc-Olivier Méhu
Technical & hardware support : Manuel Goepfert

Contact : metmap@orbifly.com




SOURCES & CREDITS :

   NOAA       Earth
Advisory